createdAt,value
2023-01-25T00:01:56.803Z,-0.11
2023-01-25T00:04:24.216Z,-0.07
2023-01-25T00:06:51.528Z,-0.16
2023-01-25T00:09:19.576Z,0.06
2023-01-25T00:11:46.402Z,-0.02
2023-01-25T00:14:14.392Z,-0.15
2023-01-25T00:16:41.414Z,-0.21
2023-01-25T00:19:09.113Z,-0.05
2023-01-25T00:21:36.255Z,-0.02
2023-01-25T00:24:03.772Z,-0.13
2023-01-25T00:26:32.265Z,0.19
2023-01-25T00:28:59.135Z,0.05
2023-01-25T00:31:48.998Z,0.05
2023-01-25T00:34:24.615Z,-0.05
2023-01-25T00:36:51.673Z,-0.25
2023-01-25T00:39:18.293Z,-0.32
2023-01-25T00:41:44.902Z,-0.16
2023-01-25T00:44:11.640Z,-0.22
2023-01-25T00:46:38.588Z,-0.12
2023-01-25T00:49:05.265Z,-0.18
2023-01-25T00:51:31.874Z,-0.22
2023-01-25T00:53:58.547Z,-0.12
2023-01-25T00:56:25.280Z,-0.14
2023-01-25T00:58:51.881Z,-0.07
2023-01-25T01:01:18.626Z,-0.05
2023-01-25T01:03:45.303Z,-0.08
2023-01-25T01:06:12.746Z,-0.28
2023-01-25T01:08:41.204Z,-0.26
2023-01-25T01:11:11.102Z,-0.21
2023-01-25T01:13:38.328Z,-0.57
2023-01-25T01:16:07.968Z,-0.62
2023-01-25T01:18:36.038Z,-0.54
2023-01-25T01:21:02.973Z,-0.49
2023-01-25T01:23:30.013Z,-0.52
2023-01-25T01:25:59.868Z,-0.42
2023-01-25T01:28:28.557Z,-0.46
2023-01-25T01:31:00.698Z,-0.59
2023-01-25T01:33:27.367Z,-0.58
2023-01-25T01:35:53.971Z,-0.40
2023-01-25T01:38:20.726Z,-0.54
2023-01-25T01:40:48.519Z,-0.55
2023-01-25T01:43:24.785Z,-0.53
2023-01-25T01:46:01.001Z,-0.54
2023-01-25T01:48:39.535Z,-0.42
2023-01-25T01:51:22.623Z,-0.47
2023-01-25T01:54:05.649Z,-0.46
2023-01-25T01:56:55.708Z,-0.46
2023-01-25T01:59:28.521Z,-0.41
2023-01-25T02:01:55.663Z,-0.59
2023-01-25T02:04:25.017Z,-0.46
2023-01-25T02:07:15.702Z,-0.59
2023-01-25T02:09:44.414Z,-0.75
2023-01-25T02:12:13.198Z,-0.66
2023-01-25T02:14:47.370Z,-0.77
2023-01-25T02:17:14.150Z,-0.52
2023-01-25T02:19:53.134Z,-0.50
2023-01-25T02:22:25.732Z,-0.70
2023-01-25T02:25:05.903Z,-0.56
2023-01-25T02:27:44.808Z,-0.56
2023-01-25T02:30:11.812Z,-0.46
2023-01-25T02:32:38.663Z,-0.46
2023-01-25T02:35:06.338Z,-0.38
2023-01-25T02:37:33.315Z,-0.66
2023-01-25T02:40:00.095Z,-0.69
2023-01-25T02:42:30.883Z,-0.68
2023-01-25T02:44:57.555Z,-0.74
2023-01-25T02:47:24.201Z,-0.55
2023-01-25T02:49:50.847Z,-0.81
2023-01-25T02:52:17.489Z,-0.88
2023-01-25T02:54:44.088Z,-0.72
2023-01-25T02:57:12.198Z,-0.73
2023-01-25T02:59:38.863Z,-0.83
2023-01-25T03:02:05.486Z,-0.84
2023-01-25T03:04:32.072Z,-0.74
2023-01-25T03:06:58.675Z,-0.68
2023-01-25T03:09:25.351Z,-0.62
2023-01-25T03:11:52.024Z,-0.47
2023-01-25T03:14:18.673Z,-0.32
2023-01-25T03:16:45.262Z,-0.61
2023-01-25T03:19:12.057Z,-0.84
2023-01-25T03:21:40.825Z,-0.80
2023-01-25T03:24:09.734Z,-0.95
2023-01-25T03:26:36.359Z,-0.86
2023-01-25T03:29:02.961Z,-0.90
2023-01-25T03:31:29.695Z,-0.93
2023-01-25T03:33:56.427Z,-0.93
2023-01-25T03:36:23.257Z,-0.84
2023-01-25T03:38:49.874Z,-0.98
2023-01-25T03:41:16.475Z,-0.98
2023-01-25T03:43:43.064Z,-0.91
2023-01-25T03:46:09.683Z,-1.04
2023-01-25T03:48:36.369Z,-0.88
2023-01-25T03:51:02.999Z,-1.03
2023-01-25T03:53:31.010Z,-1.13
2023-01-25T03:56:04.187Z,-1.16
2023-01-25T03:58:31.746Z,-1.33
2023-01-25T04:00:59.965Z,-1.42
2023-01-25T04:03:30.161Z,-1.34
2023-01-25T04:05:58.630Z,-1.41
2023-01-25T04:08:26.392Z,-1.36
2023-01-25T04:10:56.676Z,-0.93
2023-01-25T04:13:25.093Z,-0.90
2023-01-25T04:15:52.213Z,-0.93
2023-01-25T04:18:19.237Z,-0.90
2023-01-25T04:20:46.267Z,-1.01
2023-01-25T04:23:13.117Z,-0.67
2023-01-25T04:25:40.001Z,-0.71
2023-01-25T04:28:06.635Z,-0.73
2023-01-25T04:30:33.327Z,-0.69
2023-01-25T04:33:06.108Z,-0.77
2023-01-25T04:35:32.708Z,-0.70
2023-01-25T04:38:00.217Z,-0.88
2023-01-25T04:40:27.376Z,-0.81
2023-01-25T04:42:54.091Z,-0.77
2023-01-25T04:45:20.892Z,-0.74
2023-01-25T04:47:47.518Z,-0.81
2023-01-25T04:50:14.674Z,-0.57
2023-01-25T04:52:41.422Z,-0.59
2023-01-25T04:55:08.943Z,-0.40
2023-01-25T04:57:35.715Z,-0.59
2023-01-25T05:00:02.314Z,-0.59
2023-01-25T05:02:28.954Z,-0.34
2023-01-25T05:04:55.653Z,-0.31
2023-01-25T05:07:22.398Z,-0.45
2023-01-25T05:09:49.033Z,-0.37
2023-01-25T05:12:15.636Z,-0.49
2023-01-25T05:14:42.247Z,-0.65
2023-01-25T05:17:09.002Z,-0.59
2023-01-25T05:19:35.891Z,-0.69
2023-01-25T05:22:04.048Z,-0.70
2023-01-25T05:24:32.524Z,-0.74
2023-01-25T05:26:59.880Z,-0.57
2023-01-25T05:29:30.685Z,-0.49
2023-01-25T05:31:58.928Z,-0.30
2023-01-25T05:34:26.179Z,-0.17
2023-01-25T05:36:52.889Z,0.07
2023-01-25T05:39:19.575Z,0.15
2023-01-25T05:41:46.187Z,0.11
2023-01-25T05:44:12.792Z,0.17
2023-01-25T05:46:39.428Z,-0.01
2023-01-25T05:49:06.102Z,0.05
2023-01-25T05:51:33.168Z,-0.05
2023-01-25T05:53:59.769Z,-0.18
2023-01-25T05:56:26.364Z,-0.50
2023-01-25T05:58:54.595Z,-0.49
2023-01-25T06:01:21.408Z,-0.35
2023-01-25T06:03:48.541Z,-0.30
2023-01-25T06:06:15.165Z,-0.25
2023-01-25T06:08:42.025Z,-0.34
2023-01-25T06:11:15.993Z,-0.53
2023-01-25T06:13:43.433Z,-0.66
2023-01-25T06:16:10.699Z,-0.61
2023-01-25T06:18:38.087Z,-0.52
2023-01-25T06:21:05.643Z,-0.40
2023-01-25T06:23:33.002Z,-0.34
2023-01-25T06:26:03.376Z,-0.37
2023-01-25T06:28:31.431Z,-0.50
2023-01-25T06:31:06.846Z,-0.40
2023-01-25T06:33:33.881Z,-0.62
2023-01-25T06:36:05.864Z,-0.49
2023-01-25T06:38:33.069Z,-0.49
2023-01-25T06:41:01.249Z,-0.51
2023-01-25T06:43:30.710Z,-0.30
2023-01-25T06:46:01.237Z,-0.53
2023-01-25T06:48:29.262Z,-0.71
2023-01-25T06:50:58.825Z,-0.67
2023-01-25T06:53:27.341Z,-0.64
2023-01-25T06:56:05.761Z,-0.62
2023-01-25T06:58:32.801Z,-0.64
2023-01-25T07:01:08.134Z,-0.52
2023-01-25T07:03:35.120Z,-0.42
2023-01-25T07:06:04.699Z,-0.49
2023-01-25T07:08:32.385Z,-0.66
2023-01-25T07:11:01.421Z,-0.63
2023-01-25T07:13:29.755Z,-0.57
2023-01-25T07:16:05.455Z,-0.45
2023-01-25T07:18:33.182Z,-0.62
2023-01-25T07:21:10.458Z,-0.61
2023-01-25T07:23:37.202Z,-0.84
2023-01-25T07:26:05.246Z,-0.71
2023-01-25T07:28:32.610Z,-0.97
2023-01-25T07:31:06.658Z,-0.97
2023-01-25T07:33:34.547Z,-0.88
2023-01-25T07:36:02.992Z,-0.60
2023-01-25T07:38:30.094Z,-0.57
2023-01-25T07:40:56.856Z,-0.73
2023-01-25T07:43:24.002Z,-0.31
2023-01-25T07:45:51.397Z,-0.53
2023-01-25T07:48:19.940Z,-0.50
2023-01-25T07:50:47.108Z,-0.18
2023-01-25T07:53:13.936Z,-0.14
2023-01-25T07:55:40.553Z,0.02
2023-01-25T07:58:08.652Z,0.24
2023-01-25T08:00:35.356Z,-0.22
2023-01-25T08:03:02.023Z,0.29
2023-01-25T08:05:28.655Z,-0.10
2023-01-25T08:07:55.285Z,0.07
2023-01-25T08:10:21.956Z,0.28
2023-01-25T08:12:48.566Z,0.06
2023-01-25T08:15:15.313Z,-0.10
2023-01-25T08:17:41.970Z,0.18
2023-01-25T08:20:09.281Z,0.26
2023-01-25T08:22:35.964Z,-0.04
2023-01-25T08:25:04.038Z,0.30
2023-01-25T08:27:30.713Z,0.18
2023-01-25T08:29:57.376Z,0.03
2023-01-25T08:32:25.087Z,0.09
2023-01-25T08:34:51.697Z,0.15
2023-01-25T08:37:18.309Z,0.43
2023-01-25T08:39:45.097Z,0.43
2023-01-25T08:42:11.714Z,-0.02
2023-01-25T08:44:38.318Z,0.49
2023-01-25T08:47:04.965Z,0.58
2023-01-25T08:49:31.596Z,0.39
2023-01-25T08:51:58.190Z,0.13
2023-01-25T08:54:25.139Z,0.54
2023-01-25T08:56:51.725Z,0.29
2023-01-25T08:59:18.340Z,0.66
2023-01-25T09:01:45.139Z,0.49
2023-01-25T09:04:11.788Z,0.18
2023-01-25T09:06:38.439Z,0.11
2023-01-25T09:09:05.050Z,0.66
2023-01-25T09:11:34.522Z,0.70
2023-01-25T09:14:01.161Z,1.00
2023-01-25T09:16:27.776Z,1.02
2023-01-25T09:18:56.574Z,0.76
2023-01-25T09:21:23.174Z,0.94
2023-01-25T09:24:05.670Z,0.58
2023-01-25T09:26:39.334Z,0.30
2023-01-25T09:29:06.173Z,0.49
2023-01-25T09:31:32.911Z,0.59
2023-01-25T09:33:59.647Z,0.59
2023-01-25T09:36:26.277Z,0.85
2023-01-25T09:38:53.239Z,0.82
2023-01-25T09:41:28.972Z,0.86
2023-01-25T09:44:32.168Z,0.93
2023-01-25T09:47:04.053Z,0.77
2023-01-25T09:49:55.038Z,0.44
2023-01-25T09:52:57.442Z,0.69
2023-01-25T09:55:27.289Z,0.75
2023-01-25T09:57:55.749Z,0.78
2023-01-25T10:00:33.268Z,1.07
2023-01-25T10:03:16.069Z,0.67
2023-01-25T10:05:46.092Z,1.25
2023-01-25T10:08:42.485Z,1.58
2023-01-25T10:11:19.126Z,0.94
2023-01-25T10:13:46.094Z,0.49
2023-01-25T10:16:44.717Z,0.91
2023-01-25T10:19:30.741Z,1.20
2023-01-25T10:22:11.786Z,1.25
2023-01-25T10:24:41.381Z,1.14
2023-01-25T10:27:42.065Z,1.22
2023-01-25T10:30:28.329Z,1.28
2023-01-25T10:33:01.196Z,1.87
2023-01-25T10:35:35.831Z,1.99
2023-01-25T10:38:11.974Z,1.55
2023-01-25T10:40:48.698Z,1.16
2023-01-25T10:43:19.129Z,1.53
2023-01-25T10:45:46.451Z,1.84
2023-01-25T10:48:19.613Z,2.10
2023-01-25T10:50:50.492Z,2.14
2023-01-25T10:53:37.819Z,2.16
2023-01-25T10:56:04.664Z,2.23
2023-01-25T10:58:39.889Z,2.25
2023-01-25T11:01:11.020Z,1.94
2023-01-25T11:03:40.613Z,1.63
2023-01-25T11:06:08.846Z,1.55
2023-01-25T11:08:42.636Z,1.91
2023-01-25T11:11:27.239Z,2.06
2023-01-25T11:13:54.714Z,2.06
2023-01-25T11:16:33.746Z,2.18
2023-01-25T11:19:01.884Z,2.05
2023-01-25T11:21:31.161Z,2.01
2023-01-25T11:24:06.982Z,2.06
2023-01-25T11:26:35.669Z,2.13
2023-01-25T11:29:19.599Z,1.95
2023-01-25T11:31:52.276Z,2.04
2023-01-25T11:34:22.044Z,1.90
2023-01-25T11:37:07.880Z,2.04
2023-01-25T11:39:56.072Z,2.03
2023-01-25T11:42:37.742Z,2.48
2023-01-25T11:45:29.453Z,2.48
2023-01-25T11:48:16.427Z,2.39
2023-01-25T11:51:13.091Z,2.72
2023-01-25T11:54:05.592Z,2.95
2023-01-25T11:57:01.015Z,2.58
2023-01-25T11:59:36.714Z,2.06
2023-01-25T12:02:15.835Z,1.97
2023-01-25T12:04:49.771Z,1.90
2023-01-25T12:07:34.223Z,2.16
2023-01-25T12:10:19.695Z,1.78
2023-01-25T12:12:49.516Z,2.26
2023-01-25T12:15:43.881Z,2.27
2023-01-25T12:18:19.613Z,1.97
2023-01-25T12:21:01.223Z,2.12
2023-01-25T12:23:48.533Z,2.17
2023-01-25T12:26:39.032Z,2.34
2023-01-25T12:29:30.957Z,2.79
2023-01-25T12:32:21.370Z,2.83
2023-01-25T12:34:54.531Z,2.57
2023-01-25T12:37:32.317Z,2.75
2023-01-25T12:40:03.710Z,2.75
2023-01-25T12:42:57.488Z,2.68
2023-01-25T12:45:37.738Z,2.80
2023-01-25T12:48:20.343Z,2.82
2023-01-25T12:50:55.320Z,2.51
2023-01-25T12:53:34.872Z,2.46
2023-01-25T12:56:05.001Z,2.84
2023-01-25T12:58:49.945Z,2.78
2023-01-25T13:01:29.046Z,2.76
2023-01-25T13:04:04.419Z,2.80
2023-01-25T13:06:49.153Z,2.86
2023-01-25T13:09:44.934Z,2.45
2023-01-25T13:12:12.385Z,2.74
2023-01-25T13:14:41.036Z,2.79
2023-01-25T13:17:24.901Z,2.51
2023-01-25T13:19:51.932Z,2.56
2023-01-25T13:22:43.462Z,2.69
2023-01-25T13:25:16.074Z,2.77
2023-01-25T13:27:42.720Z,2.29
2023-01-25T13:30:33.819Z,2.82
2023-01-25T13:33:05.891Z,2.37
2023-01-25T13:35:36.128Z,1.83
2023-01-25T13:38:06.657Z,2.06
2023-01-25T13:40:38.449Z,2.33
2023-01-25T13:43:20.032Z,2.72
2023-01-25T13:45:50.984Z,2.66
2023-01-25T13:48:21.482Z,2.89
2023-01-25T13:50:56.847Z,2.85
2023-01-25T13:53:25.463Z,2.78
2023-01-25T13:55:57.754Z,2.05
2023-01-25T13:58:30.654Z,2.71
2023-01-25T14:01:01.016Z,2.66
2023-01-25T14:03:31.559Z,2.68
2023-01-25T14:05:59.944Z,1.94
2023-01-25T14:08:27.071Z,2.04
2023-01-25T14:10:54.724Z,2.23
2023-01-25T14:13:21.397Z,2.79
2023-01-25T14:16:01.879Z,2.84
2023-01-25T14:18:30.748Z,3.10
2023-01-25T14:21:20.056Z,3.28
2023-01-25T14:23:47.855Z,3.30
2023-01-25T14:26:26.649Z,2.95
2023-01-25T14:29:02.723Z,3.33
2023-01-25T14:31:37.268Z,2.87
2023-01-25T14:34:04.355Z,2.58
2023-01-25T14:36:33.076Z,2.41
2023-01-25T14:39:04.578Z,2.71
2023-01-25T14:41:43.775Z,2.95
2023-01-25T14:44:16.147Z,2.91
2023-01-25T14:46:42.893Z,2.71
2023-01-25T14:49:12.374Z,2.41
2023-01-25T14:51:45.070Z,2.64
2023-01-25T14:54:59.375Z,2.71
2023-01-25T14:57:31.871Z,2.59
2023-01-25T15:00:00.158Z,2.37
2023-01-25T15:02:32.786Z,2.28
2023-01-25T15:05:16.421Z,2.93
2023-01-25T15:07:52.897Z,2.85
2023-01-25T15:10:31.966Z,2.82
2023-01-25T15:13:21.714Z,2.48
2023-01-25T15:15:55.100Z,2.63
2023-01-25T15:18:40.270Z,2.52
2023-01-25T15:21:11.056Z,2.79
2023-01-25T15:23:37.898Z,2.69
2023-01-25T15:26:22.869Z,2.81
2023-01-25T15:28:52.116Z,2.73
2023-01-25T15:31:23.643Z,2.59
2023-01-25T15:33:50.519Z,2.67
2023-01-25T15:36:17.366Z,2.73
2023-01-25T15:38:44.591Z,2.73
2023-01-25T15:41:11.294Z,2.69
2023-01-25T15:43:38.144Z,3.04
2023-01-25T15:46:06.340Z,2.68
2023-01-25T15:48:38.361Z,2.58
2023-01-25T15:51:05.117Z,2.51
2023-01-25T15:53:31.871Z,2.42
2023-01-25T15:56:04.600Z,2.46
2023-01-25T15:58:36.545Z,2.32
2023-01-25T16:01:03.790Z,2.18
2023-01-25T16:03:31.102Z,2.29
2023-01-25T16:06:02.185Z,2.62
2023-01-25T16:08:29.647Z,2.59
2023-01-25T16:10:56.816Z,2.80
2023-01-25T16:13:23.968Z,2.54
2023-01-25T16:15:56.661Z,2.36
2023-01-25T16:18:23.257Z,2.37
2023-01-25T16:20:50.198Z,2.27
2023-01-25T16:23:16.779Z,2.15
2023-01-25T16:25:45.247Z,2.14
2023-01-25T16:28:16.057Z,2.21
2023-01-25T16:30:43.290Z,2.24
2023-01-25T16:33:09.920Z,2.03
2023-01-25T16:35:36.568Z,1.89
2023-01-25T16:38:03.194Z,2.26
2023-01-25T16:40:36.471Z,2.35
2023-01-25T16:43:03.269Z,2.17
2023-01-25T16:45:30.036Z,2.25
2023-01-25T16:47:56.946Z,2.14
2023-01-25T16:50:23.980Z,2.52
2023-01-25T16:52:50.592Z,2.80
2023-01-25T16:55:19.001Z,2.63
2023-01-25T16:57:50.132Z,2.41
2023-01-25T17:00:17.243Z,2.33
2023-01-25T17:02:58.309Z,2.22
2023-01-25T17:05:29.208Z,2.28
2023-01-25T17:07:55.838Z,2.54
2023-01-25T17:10:22.575Z,2.25
2023-01-25T17:12:49.229Z,2.31
2023-01-25T17:15:16.164Z,2.34
2023-01-25T17:17:42.783Z,2.37
2023-01-25T17:20:10.418Z,2.43
2023-01-25T17:22:37.266Z,2.59
2023-01-25T17:25:05.345Z,2.52
2023-01-25T17:27:32.113Z,2.41
2023-01-25T17:30:04.936Z,2.14
2023-01-25T17:32:32.452Z,1.97
2023-01-25T17:34:59.168Z,1.98
2023-01-25T17:37:27.044Z,1.91
2023-01-25T17:39:53.643Z,1.83
2023-01-25T17:42:20.291Z,1.76
2023-01-25T17:44:46.882Z,1.67
2023-01-25T17:47:13.478Z,1.79
2023-01-25T17:49:40.133Z,1.95
2023-01-25T17:52:06.723Z,2.17
2023-01-25T17:54:33.452Z,1.90
2023-01-25T17:57:00.055Z,2.06
2023-01-25T17:59:26.658Z,2.13
2023-01-25T18:01:53.426Z,2.07
2023-01-25T18:04:20.037Z,2.07
2023-01-25T18:06:46.632Z,2.06
2023-01-25T18:09:13.261Z,2.22
2023-01-25T18:11:39.949Z,2.26
2023-01-25T18:14:10.194Z,2.44
2023-01-25T18:16:39.203Z,2.23
2023-01-25T18:19:07.078Z,2.10
2023-01-25T18:21:34.138Z,2.11
2023-01-25T18:24:24.124Z,2.12
2023-01-25T18:26:51.800Z,2.14
2023-01-25T18:29:33.235Z,1.93
2023-01-25T18:31:59.974Z,2.15
2023-01-25T18:34:26.597Z,2.10
2023-01-25T18:36:53.250Z,1.87
2023-01-25T18:39:19.860Z,2.44
2023-01-25T18:41:46.526Z,2.61
2023-01-25T18:44:13.257Z,2.73
2023-01-25T18:46:39.953Z,2.22
2023-01-25T18:49:06.588Z,1.63
2023-01-25T18:51:34.966Z,2.04
2023-01-25T18:54:03.271Z,1.81
2023-01-25T18:56:29.904Z,1.60
2023-01-25T18:58:56.516Z,1.47
2023-01-25T19:01:23.269Z,1.64
2023-01-25T19:03:51.127Z,1.52
2023-01-25T19:06:19.311Z,1.56
2023-01-25T19:08:46.221Z,1.57
2023-01-25T19:11:18.530Z,2.43
2023-01-25T19:13:45.215Z,2.60
2023-01-25T19:16:23.268Z,2.32
2023-01-25T19:18:52.205Z,1.88
2023-01-25T19:21:21.936Z,1.68
2023-01-25T19:23:48.854Z,1.61
2023-01-25T19:26:18.329Z,1.59
2023-01-25T19:28:46.538Z,1.50
2023-01-25T19:31:16.373Z,1.53
2023-01-25T19:33:44.038Z,1.69
2023-01-25T19:36:14.315Z,1.52
2023-01-25T19:38:41.753Z,1.54
2023-01-25T19:41:11.385Z,1.60
2023-01-25T19:43:38.511Z,1.63
2023-01-25T19:46:16.985Z,1.60
2023-01-25T19:48:45.238Z,1.50
2023-01-25T19:51:14.397Z,1.62
2023-01-25T19:53:42.614Z,1.55
2023-01-25T19:56:09.269Z,1.51
2023-01-25T19:58:36.009Z,1.47
2023-01-25T20:01:07.182Z,1.69
2023-01-25T20:03:34.043Z,1.58
2023-01-25T20:06:01.212Z,1.54
2023-01-25T20:08:32.193Z,1.49
2023-01-25T20:11:00.794Z,1.44
2023-01-25T20:13:28.034Z,1.69
2023-01-25T20:15:55.400Z,1.61
2023-01-25T20:18:22.861Z,1.49
2023-01-25T20:21:24.608Z,1.64
2023-01-25T20:23:53.769Z,1.60
2023-01-25T20:26:23.013Z,1.66
2023-01-25T20:28:51.836Z,1.61
2023-01-25T20:31:28.672Z,1.60
2023-01-25T20:33:57.802Z,1.52
2023-01-25T20:36:24.943Z,1.43
2023-01-25T20:38:51.631Z,1.47
2023-01-25T20:41:18.686Z,1.50
2023-01-25T20:43:53.744Z,1.61
2023-01-25T20:46:22.119Z,1.44
2023-01-25T20:48:49.613Z,1.60
2023-01-25T20:51:16.595Z,1.79
2023-01-25T20:53:45.144Z,1.64
2023-01-25T20:56:13.555Z,1.43
2023-01-25T20:58:40.369Z,1.40
2023-01-25T21:01:15.139Z,1.34
2023-01-25T21:03:41.877Z,1.35
2023-01-25T21:06:09.319Z,1.28
2023-01-25T21:08:36.213Z,1.24
2023-01-25T21:11:03.474Z,1.32
2023-01-25T21:13:30.776Z,1.16
2023-01-25T21:16:19.095Z,1.40
2023-01-25T21:18:48.039Z,1.36
2023-01-25T21:21:27.316Z,1.24
2023-01-25T21:23:56.779Z,1.30
2023-01-25T21:26:26.176Z,1.31
2023-01-25T21:28:54.904Z,1.27
2023-01-25T21:31:29.509Z,1.32
2023-01-25T21:33:56.580Z,1.46
2023-01-25T21:36:23.511Z,1.60
2023-01-25T21:38:52.086Z,1.57
2023-01-25T21:41:20.072Z,1.94
2023-01-25T21:43:51.621Z,1.84
2023-01-25T21:46:19.154Z,1.63
2023-01-25T21:48:45.727Z,1.56
2023-01-25T21:51:13.184Z,1.45
2023-01-25T21:53:39.746Z,1.51
2023-01-25T21:56:06.663Z,2.46
2023-01-25T21:58:33.316Z,2.54
2023-01-25T22:01:01.154Z,2.02
2023-01-25T22:03:27.791Z,1.59
2023-01-25T22:05:54.761Z,1.44
2023-01-25T22:08:21.361Z,1.41
2023-01-25T22:10:48.177Z,1.51
2023-01-25T22:13:14.858Z,1.43
2023-01-25T22:15:41.556Z,1.44
2023-01-25T22:18:08.300Z,1.55
2023-01-25T22:20:34.896Z,1.51
2023-01-25T22:23:01.481Z,1.41
2023-01-25T22:25:28.141Z,1.49
2023-01-25T22:27:59.762Z,1.44
2023-01-25T22:30:26.364Z,1.57
2023-01-25T22:32:52.964Z,1.65
2023-01-25T22:35:19.553Z,1.74
2023-01-25T22:37:46.348Z,1.58
2023-01-25T22:40:13.510Z,1.37
2023-01-25T22:42:40.198Z,1.35
2023-01-25T22:45:07.405Z,1.28
2023-01-25T22:47:34.107Z,1.31
2023-01-25T22:50:00.772Z,1.31
2023-01-25T22:52:27.391Z,1.42
2023-01-25T22:54:54.101Z,1.19
2023-01-25T22:57:20.786Z,1.31
2023-01-25T22:59:47.377Z,1.32
2023-01-25T23:02:13.979Z,1.62
2023-01-25T23:04:40.750Z,1.29
2023-01-25T23:07:07.417Z,1.25
2023-01-25T23:09:34.031Z,1.27
2023-01-25T23:12:00.803Z,1.27
2023-01-25T23:14:27.412Z,1.31
2023-01-25T23:16:54.588Z,1.35
2023-01-25T23:19:21.173Z,1.30
2023-01-25T23:21:47.819Z,1.22
2023-01-25T23:24:14.504Z,1.32
2023-01-25T23:26:41.204Z,1.39
2023-01-25T23:29:12.412Z,1.57
2023-01-25T23:31:39.453Z,1.49
2023-01-25T23:34:07.106Z,1.44
2023-01-25T23:36:35.841Z,1.34
2023-01-25T23:39:03.185Z,1.34
2023-01-25T23:41:30.613Z,1.42
2023-01-25T23:43:57.527Z,1.30
2023-01-25T23:46:24.907Z,1.33
2023-01-25T23:48:51.830Z,1.31
2023-01-25T23:51:19.173Z,1.24
2023-01-25T23:53:46.119Z,1.30
2023-01-25T23:56:16.444Z,1.67
2023-01-25T23:58:43.209Z,1.86
